Lebanon, New Hampshire
Current Conditions -  °F | °C
As of 9:18 PM on Monday 22 Dec 2014 (Local Time) from KLEB Reporting Station
Overcast Overcast  
Wind Chill: 33°   Ceiling: 1300
Heat Index: 33°   Visibility: 10mi
Dew Point: 30°   Wind: 0mph
Humidity: 89%   Direction: NA
Pressure: 30.3"   Gusts: NA
Location:  43.64°N, 72.25°W
Report Text: KLEB 230218Z 00000KT 10SM BKN013 OVC045 01/M01 A3030 RMK AO2 T00061011
Loading
Personal Weather Stations






























Interactive Weather Map New forecast layout! Learn more

10-Day Weather Forecast

Advertisements
Track Severe Weather on mobile